Time;durP1;ratioP1;P1;durP2;ratioP2;P2;SDS_P1;SDS_P2;PMS_P1;PMS_P2;Temp;Humidity;BMP_temperature;BMP_pressure;BME280_temperature;BME280_humidity;BME280_pressure;Samples;Min_cycle;Max_cycle;Signal;HPM_P1;HPM_P2
2022/05/17 00:00:30;;;;;;;9.65;3.70;;;;;;;15.84;100.00;100526.94;4973003;28;20122;-67
2022/05/17 00:02:57;;;;;;;13.30;3.78;;;;;;;15.74;100.00;100514.91;4971756;28;20031;-67
2022/05/17 00:05:23;;;;;;;7.25;3.40;;;;;;;15.72;100.00;100528.38;4972775;28;20101;-67
2022/05/17 00:07:48;;;;;;;7.13;3.78;;;;;;;15.65;100.00;100521.53;4973776;28;20394;-67
2022/05/17 00:10:14;;;;;;;9.40;3.45;;;;;;;15.63;100.00;100531.47;4973889;28;20026;-67
2022/05/17 00:12:40;;;;;;;7.63;3.70;;;;;;;15.59;100.00;100532.56;4975974;28;20137;-67
2022/05/17 00:15:06;;;;;;;8.10;3.42;;;;;;;15.57;100.00;100533.56;4973276;28;20026;-67
2022/05/17 00:17:32;;;;;;;7.68;3.15;;;;;;;15.57;100.00;100534.44;4961872;28;20031;-67
2022/05/17 00:19:58;;;;;;;5.13;3.10;;;;;;;15.55;100.00;100527.41;4954272;29;20027;-67
2022/05/17 00:22:24;;;;;;;8.85;3.53;;;;;;;15.53;100.00;100524.78;4971980;28;20037;-67
2022/05/17 00:24:49;;;;;;;7.53;3.50;;;;;;;15.43;100.00;100509.19;4975390;28;20037;-67
2022/05/17 00:27:15;;;;;;;9.48;3.33;;;;;;;15.50;100.00;100521.38;4971991;28;20054;-67
2022/05/17 00:29:40;;;;;;;8.27;3.25;;;;;;;15.56;100.00;100524.66;4971755;28;20026;-67
2022/05/17 00:32:06;;;;;;;8.20;3.53;;;;;;;15.58;100.00;100520.06;4971502;28;20150;-67
2022/05/17 00:34:32;;;;;;;6.40;3.53;;;;;;;15.63;100.00;100522.56;4971497;28;20030;-67
2022/05/17 00:36:58;;;;;;;8.07;3.47;;;;;;;15.63;100.00;100520.75;4954268;28;20023;-67
2022/05/17 00:39:23;;;;;;;8.02;3.78;;;;;;;15.60;100.00;100518.19;4971701;28;20120;-67
2022/05/17 00:41:49;;;;;;;5.47;3.00;;;;;;;15.61;100.00;100508.34;4973373;28;20085;-67
2022/05/17 00:47:24;;;;;;;6.85;4.13;;;;;;;15.58;100.00;100509.34;4973019;28;20062;-67
2022/05/17 00:50:01;;;;;;;6.80;3.38;;;;;;;15.61;100.00;100513.72;4969248;28;20034;-67
2022/05/17 00:52:50;;;;;;;5.47;3.10;;;;;;;15.61;100.00;100508.34;4972950;28;20551;-67
2022/05/17 00:55:34;;;;;;;6.57;3.65;;;;;;;15.55;100.00;100508.66;4972550;28;20031;-67
2022/05/17 00:58:19;;;;;;;;;;;;;;;15.53;100.00;100515.88;4973257;28;20415;-67
2022/05/17 01:00:50;;;;;;;8.63;3.85;;;;;;;15.47;100.00;100522.38;4972612;28;20381;-67
2022/05/17 01:03:19;;;;;;;6.97;3.85;;;;;;;15.41;100.00;100519.09;4972689;28;20331;-67
2022/05/17 01:05:48;;;;;;;7.68;4.03;;;;;;;15.35;100.00;100522.03;4972339;28;20081;-67
2022/05/17 01:08:17;;;;;;;6.07;2.90;;;;;;;15.28;100.00;100521.41;4972108;28;20030;-67
2022/05/17 01:10:43;;;;;;;5.40;2.97;;;;;;;15.21;100.00;100514.56;4975118;28;20050;-67
2022/05/17 01:15:53;;;;;;;5.43;3.03;;;;;;;15.18;100.00;100517.41;4971979;28;20033;-67
2022/05/17 01:18:18;;;;;;;5.93;3.45;;;;;;;15.18;100.00;100508.47;4955502;28;20019;-67
2022/05/17 01:20:44;;;;;;;4.93;2.92;;;;;;;15.17;100.00;100512.09;4958273;28;20029;-67
2022/05/17 01:23:10;;;;;;;9.52;3.38;;;;;;;15.19;100.00;100516.44;4972549;28;20031;-67
2022/05/17 01:25:35;;;;;;;7.88;3.72;;;;;;;15.20;100.00;100523.56;4972010;28;20410;-67
2022/05/17 01:28:08;;;;;;;8.38;3.55;;;;;;;15.20;100.00;100523.56;4971802;28;20023;-67
2022/05/17 01:30:34;;;;;;;5.25;3.22;;;;;;;15.19;100.00;100521.81;4972128;28;20034;-67
2022/05/17 01:32:59;;;;;;;4.93;3.30;;;;;;;15.15;100.00;100520.22;4972618;28;20097;-67
2022/05/17 01:35:25;;;;;;;5.20;2.83;;;;;;;15.09;100.00;100515.09;4954346;28;20115;-67
2022/05/17 01:37:54;;;;;;;9.57;2.97;;;;;;;15.11;100.00;100523.06;4970642;28;20110;-67
2022/05/17 01:40:20;;;;;;;6.53;3.30;;;;;;;15.07;100.00;100522.34;4970733;28;20022;-67
2022/05/17 01:42:46;;;;;;;7.28;4.20;;;;;;;15.05;100.00;100524.22;4969955;28;20026;-67
2022/05/17 01:45:11;;;;;;;6.53;3.47;;;;;;;14.90;100.00;100519.50;4969696;28;20037;-67
2022/05/17 01:47:38;;;;;;;8.07;3.28;;;;;;;14.86;100.00;100520.56;4952671;28;20073;-67
2022/05/17 01:50:04;;;;;;;7.65;4.00;;;;;;;14.90;100.00;100522.19;4969896;28;20018;-67
2022/05/17 01:52:30;;;;;;;7.43;3.70;;;;;;;14.87;100.00;100530.34;4971411;28;20031;-67
2022/05/17 01:54:55;;;;;;;5.75;3.40;;;;;;;14.85;100.00;100516.16;4971000;28;20418;-67
2022/05/17 01:57:20;;;;;;;10.00;3.88;;;;;;;14.82;100.00;100520.75;4970214;28;20110;-67
2022/05/17 01:59:46;;;;;;;10.48;3.75;;;;;;;14.87;100.00;100514.28;4968484;28;20033;-67
2022/05/17 02:02:11;;;;;;;8.10;3.70;;;;;;;14.94;100.00;100518.44;4968555;28;20057;-67
2022/05/17 02:04:37;;;;;;;6.70;3.75;;;;;;;14.98;100.00;100517.38;4968999;28;20031;-67
2022/05/17 02:07:03;;;;;;;6.82;3.90;;;;;;;14.99;100.00;100519.09;4968573;28;20367;-67
2022/05/17 02:09:28;;;;;;;7.70;4.03;;;;;;;14.94;100.00;100515.75;4969441;28;20023;-67
2022/05/17 02:11:55;;;;;;;7.22;4.57;;;;;;;14.83;100.00;100512.66;4969388;28;20100;-67
2022/05/17 02:14:20;;;;;;;8.60;3.90;;;;;;;14.81;100.00;100519.88;4971876;28;20149;-67
2022/05/17 02:16:47;;;;;;;9.10;3.65;;;;;;;14.77;100.00;100523.63;4966585;28;20026;-67
2022/05/17 02:19:12;;;;;;;6.72;3.72;;;;;;;14.76;100.00;100527.22;4952464;28;20081;-67
2022/05/17 02:21:39;;;;;;;7.68;4.20;;;;;;;14.74;100.00;100525.56;4970892;28;20475;-67
2022/05/17 02:24:05;;;;;;;6.78;3.92;;;;;;;14.69;100.00;100525.75;4975536;28;20478;-67
2022/05/17 02:26:32;;;;;;;7.45;4.22;;;;;;;14.70;100.00;100526.63;4975487;28;20023;-67
2022/05/17 02:28:58;;;;;;;7.60;4.28;;;;;;;14.57;100.00;100509.31;4975608;28;20029;-67
2022/05/17 02:31:23;;;;;;;7.65;4.50;;;;;;;14.59;100.00;100520.84;4977659;28;20034;-67
2022/05/17 02:33:49;;;;;;;7.78;3.65;;;;;;;14.60;100.00;100528.81;4975879;28;20433;-67
2022/05/17 02:36:14;;;;;;;8.02;4.15;;;;;;;14.61;100.00;100530.56;4975099;28;20019;-67
2022/05/17 02:38:41;;;;;;;6.28;3.90;;;;;;;14.66;100.00;100527.69;4975103;28;20019;-67
2022/05/17 02:41:07;;;;;;;6.53;4.22;;;;;;;14.69;100.00;100531.13;4975499;28;20466;-67
2022/05/17 02:43:32;;;;;;;10.30;4.45;;;;;;;14.67;100.00;100532.97;4974388;28;20023;-67
2022/05/17 02:45:58;;;;;;;8.05;4.15;;;;;;;14.59;100.00;100528.88;4956400;28;20478;-67
2022/05/17 02:48:23;;;;;;;6.22;4.10;;;;;;;14.59;100.00;100536.91;4970716;28;20049;-67
2022/05/17 02:50:49;;;;;;;9.95;3.80;;;;;;;14.52;100.00;100525.56;4974010;28;20097;-67
2022/05/17 02:53:14;;;;;;;8.90;4.90;;;;;;;14.50;100.00;100530.09;4974629;28;20038;-67
2022/05/17 02:55:40;;;;;;;7.90;4.57;;;;;;;14.49;100.00;100536.41;4974621;28;20375;-67
2022/05/17 02:58:06;;;;;;;9.68;4.03;;;;;;;14.46;100.00;100533.84;4966027;28;20033;-67
2022/05/17 03:00:32;;;;;;;9.20;3.70;;;;;;;14.47;100.00;100535.59;4957816;28;20030;-67
2022/05/17 03:02:58;;;;;;;6.90;4.03;;;;;;;14.46;100.00;100534.72;4976923;28;20027;-67
2022/05/17 03:05:24;;;;;;;6.90;3.35;;;;;;;14.49;100.00;100544.44;4974742;28;20038;-67
2022/05/17 03:07:49;;;;;;;10.40;4.18;;;;;;;14.41;100.00;100544.72;4973720;28;20125;-67
2022/05/17 03:10:15;;;;;;;11.18;3.67;;;;;;;14.40;100.00;100544.78;4974811;28;20126;-67
2022/05/17 03:12:41;;;;;;;6.60;3.50;;;;;;;14.40;100.00;100534.97;4975026;28;20035;-67
2022/05/17 03:15:07;;;;;;;6.82;3.70;;;;;;;14.42;100.00;100545.59;4974200;28;20042;-67
2022/05/17 03:17:33;;;;;;;8.23;3.55;;;;;;;14.45;100.00;100542.78;4963519;28;20035;-67
2022/05/17 03:19:58;;;;;;;7.57;3.58;;;;;;;14.46;100.00;100544.56;4954828;29;20086;-67
2022/05/17 03:22:24;;;;;;;7.63;4.00;;;;;;;14.45;100.00;100542.78;4973481;28;20090;-67
2022/05/17 03:24:51;;;;;;;5.90;3.13;;;;;;;14.35;100.00;100546.78;4974669;28;20553;-67
2022/05/17 03:27:18;;;;;;;7.00;3.80;;;;;;;14.38;100.00;100558.22;4974135;28;20081;-67
2022/05/17 03:29:43;;;;;;;7.70;3.85;;;;;;;14.31;100.00;100550.53;4974368;28;20034;-67
2022/05/17 03:32:09;;;;;;;8.18;3.60;;;;;;;14.37;100.00;100550.25;4973803;28;20034;-67
2022/05/17 03:34:35;;;;;;;6.45;3.40;;;;;;;14.31;100.00;100553.19;4974119;28;20050;-67
2022/05/17 03:37:00;;;;;;;8.93;4.03;;;;;;;14.30;100.00;100564.81;4972738;28;20390;-67
2022/05/17 03:39:25;;;;;;;7.18;4.05;;;;;;;14.32;100.00;100552.25;4972674;28;20026;-67
2022/05/17 03:41:51;;;;;;;8.32;4.72;;;;;;;14.26;100.00;100547.16;4972810;28;20066;-69
2022/05/17 03:44:17;;;;;;;14.77;4.22;;;;;;;14.20;100.00;100545.53;4972649;28;20034;-67
2022/05/17 03:46:43;;;;;;;5.63;3.22;;;;;;;14.28;100.00;100539.94;4971848;28;20121;-67
2022/05/17 03:49:08;;;;;;;6.60;3.88;;;;;;;14.32;100.00;100557.59;4973659;28;20034;-67
2022/05/17 03:51:34;;;;;;;8.70;4.35;;;;;;;14.39;100.00;100559.13;4973839;28;20049;-67
2022/05/17 03:54:00;;;;;;;6.70;3.70;;;;;;;14.41;100.00;100546.56;4974047;28;20479;-67
2022/05/17 03:56:25;;;;;;;6.85;3.45;;;;;;;14.40;100.00;100547.47;4972206;28;20034;-67
2022/05/17 03:58:50;;;;;;;6.80;3.80;;;;;;;14.36;100.00;100552.06;4973714;28;20018;-67
2022/05/17 04:01:16;;;;;;;7.45;4.03;;;;;;;14.32;100.00;100558.47;4975095;28;20400;-67
2022/05/17 04:03:43;;;;;;;7.45;3.95;;;;;;;14.22;100.00;100549.03;4974557;28;20150;-68
2022/05/17 04:06:08;;;;;;;7.18;4.03;;;;;;;14.27;100.00;100564.94;4974249;28;20545;-68
2022/05/17 04:08:36;;;;;;;17.00;4.10;;;;;;;14.31;100.00;100563.91;4973309;28;20121;-68
2022/05/17 04:11:05;;;;;;;7.88;4.50;;;;;;;14.38;100.00;100562.72;4973765;28;20042;-68
2022/05/17 04:13:31;;;;;;;6.32;4.57;;;;;;;14.47;100.00;100557.88;4973436;28;20031;-68
2022/05/17 04:15:58;;;;;;;7.80;4.30;;;;;;;14.60;100.00;100552.91;4975873;28;20022;-68
2022/05/17 04:18:24;;;;;;;6.97;3.90;;;;;;;14.66;100.00;100562.50;4955360;28;20093;-68
2022/05/17 04:20:49;;;;;;;7.57;4.40;;;;;;;14.68;100.00;100561.50;4957661;28;20039;-68
2022/05/17 04:23:15;;;;;;;7.43;4.45;;;;;;;14.71;100.00;100560.50;4970036;28;20029;-68
2022/05/17 04:25:40;;;;;;;7.00;4.10;;;;;;;14.70;100.00;100564.97;4970054;28;20034;-68
2022/05/17 04:28:06;;;;;;;8.90;4.32;;;;;;;14.69;100.00;100571.28;4971902;28;20030;-68
2022/05/17 04:30:31;;;;;;;6.72;4.07;;;;;;;14.72;100.00;100573.84;4971891;28;20041;-68
2022/05/17 04:33:00;;;;;;;10.20;6.93;;;;;;;14.77;100.00;100574.53;4974356;28;20394;-68
2022/05/17 04:35:25;;;;;;;7.15;4.28;;;;;;;14.85;100.00;100569.72;4971950;28;20030;-68
2022/05/17 04:37:51;;;;;;;8.65;4.35;;;;;;;14.94;100.00;100573.81;4970385;28;20467;-68
2022/05/17 04:40:17;;;;;;;10.32;4.75;;;;;;;15.01;100.00;100573.50;4973593;28;20034;-68
2022/05/17 04:42:47;;;;;;;11.20;4.90;;;;;;;15.12;100.00;100573.91;4972489;28;20107;-68
2022/05/17 04:45:15;;;;;;;7.72;4.60;;;;;;;15.19;100.00;100580.75;4972645;28;20026;-68
2022/05/17 04:47:42;;;;;;;9.75;4.70;;;;;;;15.26;100.00;100579.56;4972815;28;20134;-68
2022/05/17 04:50:08;;;;;;;9.60;4.85;;;;;;;15.35;100.00;100586.34;4972817;28;20034;-68
2022/05/17 04:52:34;;;;;;;10.82;5.45;;;;;;;15.43;100.00;100592.28;4972387;28;20126;-68
2022/05/17 04:54:59;;;;;;;8.20;5.15;;;;;;;15.54;100.00;100588.19;4971184;28;20601;-68
2022/05/17 04:57:25;;;;;;;9.00;5.05;;;;;;;15.58;100.00;100584.44;4972330;28;20072;-68
2022/05/17 04:59:50;;;;;;;11.60;5.38;;;;;;;15.71;100.00;100599.06;4972963;28;20027;-68
2022/05/17 05:02:16;;;;;;;9.05;4.93;;;;;;;15.72;100.00;100603.47;4972171;28;20433;-68
2022/05/17 05:04:41;;;;;;;11.68;6.35;;;;;;;15.82;100.00;100604.81;4971949;28;20031;-68
2022/05/17 05:07:07;;;;;;;9.43;6.18;;;;;;;15.98;100.00;100606.81;4971758;28;20070;-68
2022/05/17 05:09:32;;;;;;;11.85;6.65;;;;;;;16.17;100.00;100611.28;4972389;28;20062;-68
2022/05/17 05:11:58;;;;;;;11.40;7.15;;;;;;;16.29;100.00;100602.63;4972212;28;20023;-68
2022/05/17 05:14:27;;;;;;;12.05;7.03;;;;;;;16.45;100.00;100605.50;4972606;28;20035;-68
2022/05/17 05:16:52;;;;;;;11.00;6.47;;;;;;;16.69;100.00;100596.28;4966772;28;20190;-68
2022/05/17 05:19:18;;;;;;;9.23;5.97;;;;;;;17.10;100.00;100596.00;4953290;28;20080;-68
2022/05/17 05:21:44;;;;;;;13.10;6.45;;;;;;;17.30;100.00;100603.06;4953164;28;20102;-68
2022/05/17 05:24:11;;;;;;;11.25;5.60;;;;;;;17.43;100.00;100595.25;4952896;29;20023;-68
2022/05/17 05:26:38;;;;;;;11.98;6.30;;;;;;;17.55;100.00;100602.72;4952804;29;20501;-68
2022/05/17 05:29:05;;;;;;;8.80;6.05;;;;;;;17.65;100.00;100602.16;4962350;28;20486;-68
2022/05/17 05:31:30;;;;;;;7.60;5.28;;;;;;;17.71;100.00;100593.75;4969785;28;20027;-68
2022/05/17 05:33:56;;;;;;;9.82;5.85;;;;;;;17.87;100.00;100594.72;4970282;28;20379;-68
2022/05/17 05:36:22;;;;;;;11.82;5.55;;;;;;;17.98;100.00;100607.59;4970652;28;20100;-68
2022/05/17 05:38:48;;;;;;;12.57;6.60;;;;;;;18.00;100.00;100601.19;4971665;28;20035;-68
2022/05/17 05:41:13;;;;;;;10.52;5.82;;;;;;;18.21;100.00;100609.91;4970764;28;20125;-68
2022/05/17 05:43:39;;;;;;;12.02;7.32;;;;;;;18.27;100.00;100598.78;4967427;28;20484;-68
2022/05/17 05:46:05;;;;;;;8.77;5.00;;;;;;;18.36;100.00;100587.53;4970666;28;20038;-68
2022/05/17 05:48:31;;;;;;;10.98;5.53;;;;;;;18.58;100.00;100603.41;4971596;28;20154;-68
2022/05/17 05:50:56;;;;;;;9.02;5.20;;;;;;;18.72;100.00;100603.47;4971630;28;20039;-68
2022/05/17 05:53:22;;;;;;;9.73;4.70;;;;;;;18.88;100.00;100607.06;4972149;28;20105;-68
2022/05/17 05:55:57;;;;;;;10.95;5.13;;;;;;;19.07;99.00;100613.13;4971622;28;20034;-68
2022/05/17 05:58:23;;;;;;;10.38;4.75;;;;;;;19.22;98.62;100614.94;4953570;28;20673;-68
2022/05/17 06:00:49;;;;;;;6.03;4.05;;;;;;;19.37;97.36;100611.38;4971663;28;20034;-68
2022/05/17 06:03:14;;;;;;;13.07;4.18;;;;;;;19.59;97.00;100606.44;4970647;28;20406;-68
2022/05/17 06:05:40;;;;;;;8.55;4.65;;;;;;;19.70;95.83;100617.47;4970325;28;20038;-68
2022/05/17 06:08:05;;;;;;;9.43;4.30;;;;;;;19.84;94.53;100611.22;4969968;28;20027;-68
2022/05/17 06:10:31;;;;;;;6.22;4.18;;;;;;;20.04;94.93;100611.75;4969409;28;20339;-68
2022/05/17 06:12:57;;;;;;;7.45;4.70;;;;;;;20.18;93.26;100606.38;4980559;28;20110;-68
2022/05/17 06:15:22;;;;;;;11.07;5.13;;;;;;;20.35;92.32;100608.00;4967949;28;20130;-68
2022/05/17 06:17:49;;;;;;;8.77;5.22;;;;;;;20.49;92.55;100608.88;4955864;28;20059;-68
2022/05/17 06:20:16;;;;;;;9.60;4.45;;;;;;;20.68;90.85;100620.25;4952934;28;20028;-68
2022/05/17 06:22:41;;;;;;;11.18;4.50;;;;;;;20.83;89.71;100619.28;4974397;28;20115;-68
2022/05/17 06:25:08;;;;;;;10.10;5.38;;;;;;;20.89;88.47;100616.16;4971406;28;20107;-68
2022/05/17 06:27:33;;;;;;;8.85;4.50;;;;;;;21.12;87.74;100617.38;4970844;28;20122;-68
2022/05/17 06:29:59;;;;;;;9.68;4.97;;;;;;;21.09;87.72;100619.44;4971853;28;20122;-68
2022/05/17 06:32:25;;;;;;;8.30;4.57;;;;;;;21.21;87.75;100622.19;4970995;28;20173;-68
2022/05/17 06:34:50;;;;;;;8.55;5.18;;;;;;;21.29;85.42;100619.81;4970499;28;20031;-68
2022/05/17 06:37:16;;;;;;;7.28;4.38;;;;;;;21.37;86.05;100616.59;4969416;28;20081;-69
2022/05/17 06:39:42;;;;;;;10.65;5.30;;;;;;;21.43;84.57;100625.16;4971263;28;20050;-69
2022/05/17 06:42:08;;;;;;;10.07;5.25;;;;;;;21.47;84.31;100628.53;4971706;28;20085;-69
2022/05/17 06:44:34;;;;;;;10.90;5.30;;;;;;;21.63;83.26;100629.25;4971161;28;20031;-69
2022/05/17 06:46:59;;;;;;;7.93;4.80;;;;;;;21.63;82.06;100629.25;4970348;28;20043;-69
2022/05/17 06:49:26;;;;;;;8.40;4.40;;;;;;;21.78;81.44;100628.22;4971167;28;20117;-69
2022/05/17 06:51:52;;;;;;;8.18;4.90;;;;;;;21.91;80.36;100623.72;4972972;28;20058;-69
2022/05/17 06:54:18;;;;;;;9.35;4.28;;;;;;;22.23;79.63;100625.03;4968896;28;20026;-69
2022/05/17 06:56:43;;;;;;;7.10;4.32;;;;;;;22.31;77.98;100628.06;4955818;28;20104;-68
2022/05/17 06:59:09;;;;;;;21.05;5.80;;;;;;;22.60;76.93;100621.44;4950568;29;20031;-68
2022/05/17 07:01:35;;;;;;;8.25;4.47;;;;;;;22.81;75.38;100627.16;4960294;28;20033;-68
2022/05/17 07:04:01;;;;;;;8.50;4.43;;;;;;;22.79;74.28;100619.13;4949589;28;20046;-68
2022/05/17 07:06:27;;;;;;;9.65;5.63;;;;;;;22.70;74.06;100619.78;4954252;29;20035;-68
2022/05/17 07:08:52;;;;;;;11.77;5.25;;;;;;;23.00;72.49;100627.50;4937883;29;20023;-68
2022/05/17 07:14:02;;;;;;;7.93;4.65;;;;;;;23.20;71.89;100624.19;4954624;29;20348;-68
2022/05/17 07:16:27;;;;;;;8.63;4.65;;;;;;;23.48;71.28;100628.44;4957810;28;20035;-68
2022/05/17 07:18:53;;;;;;;9.05;4.28;;;;;;;23.58;70.91;100629.47;4974585;28;20113;-68
2022/05/17 07:21:18;;;;;;;7.25;4.43;;;;;;;23.83;69.39;100630.19;4975281;28;20443;-68
2022/05/17 07:23:44;;;;;;;8.50;4.82;;;;;;;24.09;68.06;100622.75;4974446;28;20454;-68
2022/05/17 07:26:11;;;;;;;8.15;3.65;;;;;;;24.38;67.44;100627.63;4974120;28;20046;-68
2022/05/17 07:28:42;;;;;;;6.88;4.20;;;;;;;24.13;65.88;100622.41;4974557;28;20034;-68
2022/05/17 07:31:08;;;;;;;7.32;3.90;;;;;;;23.96;66.35;100609.25;4974030;28;20785;-68
2022/05/17 07:33:34;;;;;;;9.18;5.18;;;;;;;23.99;67.56;100611.75;4973722;28;20043;-68
2022/05/17 07:35:59;;;;;;;11.40;4.30;;;;;;;23.97;67.14;100589.22;4974373;28;20146;-68
2022/05/17 07:38:25;;;;;;;8.13;4.82;;;;;;;24.34;67.39;100615.28;4974403;28;20486;-68
2022/05/17 07:40:51;;;;;;;8.18;4.63;;;;;;;24.48;66.56;100609.56;4974509;28;20031;-68
2022/05/17 07:43:17;;;;;;;7.85;3.85;;;;;;;24.83;66.72;100617.63;4971654;28;20034;-68
2022/05/17 07:45:44;;;;;;;8.45;4.97;;;;;;;25.17;64.81;100615.72;4972729;28;20113;-68
2022/05/17 07:48:11;;;;;;;10.30;4.25;;;;;;;25.44;63.19;100611.56;4972257;28;20047;-68
2022/05/17 07:50:36;;;;;;;6.53;3.53;;;;;;;25.83;62.54;100621.78;4954515;28;20454;-68
2022/05/17 07:53:08;;;;;;;8.38;4.00;;;;;;;26.44;60.70;100621.94;4972251;28;20026;-68
2022/05/17 07:55:38;;;;;;;9.43;3.85;;;;;;;26.82;56.85;100614.81;4972569;28;20054;-68
2022/05/17 07:58:04;;;;;;;6.63;3.50;;;;;;;26.64;56.92;100612.84;4973393;28;20034;-68
2022/05/17 08:00:30;;;;;;;6.75;3.28;;;;;;;27.03;56.81;100614.75;4973974;28;20039;-68
2022/05/17 08:02:58;;;;;;;8.90;3.53;;;;;;;27.34;53.18;100612.81;4973510;28;20034;-68
2022/05/17 08:05:24;;;;;;;12.18;7.07;;;;;;;27.63;53.34;100609.09;4972462;28;20516;-68
2022/05/17 08:07:49;;;;;;;9.73;3.42;;;;;;;27.68;52.15;100617.72;4971829;28;20031;-69
2022/05/17 08:10:15;;;;;;;9.07;3.85;;;;;;;27.77;52.57;100614.13;4972383;28;20023;-69
2022/05/17 08:12:40;;;;;;;7.40;3.92;;;;;;;27.67;51.54;100613.28;4972677;28;20030;-68
2022/05/17 08:15:09;;;;;;;4.80;3.28;;;;;;;28.09;51.16;100611.97;4973685;28;20102;-68
2022/05/17 08:17:35;;;;;;;5.43;3.40;;;;;;;28.07;50.90;100607.66;4960850;28;20027;-68
2022/05/17 08:20:00;;;;;;;9.50;4.22;;;;;;;28.33;51.13;100608.75;4957089;28;20050;-68
2022/05/17 08:22:26;;;;;;;8.18;3.88;;;;;;;28.35;50.68;100607.56;4974560;28;20030;-68
2022/05/17 08:27:39;;;;;;;6.50;3.38;;;;;;;28.68;51.96;100605.34;4990850;28;20044;-68
2022/05/17 08:30:15;;;;;;;6.43;3.67;;;;;;;28.74;50.37;100612.94;4992466;28;20081;-68
2022/05/17 08:33:14;;;;;;;8.25;3.80;;;;;;;28.89;51.69;100605.94;4991409;28;20026;-68
2022/05/17 08:35:55;;;;;;;8.45;3.97;;;;;;;29.12;52.37;100608.16;4991504;28;20022;-68
2022/05/17 08:38:29;;;;;;;7.20;4.13;;;;;;;29.04;48.96;100604.44;4991087;28;20034;-68
2022/05/17 08:41:09;;;;;;;8.32;3.67;;;;;;;29.19;50.91;100613.91;4990890;28;20026;-68
2022/05/17 08:43:56;;;;;;;5.32;3.08;;;;;;;29.55;48.77;100605.56;4990942;28;20046;-68
2022/05/17 08:46:41;;;;;;;6.15;3.05;;;;;;;29.42;47.05;100616.03;4991219;28;20060;-68
2022/05/17 08:49:26;;;;;;;5.32;2.80;;;;;;;29.58;48.27;100609.84;4992629;28;20113;-68
2022/05/17 08:52:07;;;;;;;6.55;3.15;;;;;;;29.32;46.66;100614.38;4978358;28;20031;-68
2022/05/17 08:54:39;;;;;;;5.18;3.05;;;;;;;29.62;48.04;100606.63;4957932;28;20030;-68
2022/05/17 08:57:22;;;;;;;6.47;2.97;;;;;;;29.75;47.80;100606.28;4972964;28;20376;-68
2022/05/17 08:59:48;;;;;;;;;;;;;;;30.07;46.09;100609.28;4973124;28;20050;-68
2022/05/17 09:02:23;;;;;;;7.03;2.95;;;;;;;30.33;47.63;100617.59;4972199;28;20385;-68
2022/05/17 09:04:57;;;;;;;6.30;3.65;;;;;;;30.30;46.57;100624.25;4971592;28;20027;-68
2022/05/17 09:07:26;;;;;;;8.60;3.55;;;;;;;30.04;45.47;100617.84;4970702;28;20027;-68
2022/05/17 09:09:57;;;;;;;6.97;3.13;;;;;;;30.20;47.29;100606.13;4970982;28;20565;-68
2022/05/17 09:12:25;;;;;;;5.25;3.00;;;;;;;30.27;45.85;100613.59;4971418;28;20026;-68
2022/05/17 09:14:55;;;;;;;6.18;3.10;;;;;;;30.55;45.71;100617.88;4970822;28;20058;-68
2022/05/17 09:17:24;;;;;;;5.57;2.90;;;;;;;30.53;45.56;100597.97;4971417;28;20034;-68
2022/05/17 09:19:51;;;;;;;5.70;3.50;;;;;;;30.60;45.77;100610.03;4971899;28;20042;-68
2022/05/17 09:22:17;;;;;;;5.28;2.45;;;;;;;30.98;46.43;100607.81;4971407;28;20186;-68
2022/05/17 09:24:54;;;;;;;8.85;2.80;;;;;;;31.10;45.92;100598.25;4971956;28;20110;-68
2022/05/17 09:27:25;;;;;;;5.38;2.65;;;;;;;30.84;43.29;100601.94;4971976;28;20023;-68
2022/05/17 09:29:57;;;;;;;5.63;2.50;;;;;;;30.93;43.68;100594.59;4972350;28;20548;-68
2022/05/17 09:32:32;;;;;;;5.65;2.17;;;;;;;31.11;44.38;100597.22;4972194;28;20038;-67
2022/05/17 09:35:03;;;;;;;7.57;2.83;;;;;;;31.20;43.77;100599.84;4970645;28;20047;-67
2022/05/17 09:37:40;;;;;;;5.00;2.80;;;;;;;31.32;45.35;100592.16;4971030;28;20027;-67
2022/05/17 09:40:10;;;;;;;5.88;3.08;;;;;;;31.04;42.80;100596.19;4971046;28;20081;-67
2022/05/17 09:42:59;;;;;;;4.78;2.20;;;;;;;31.07;42.61;100590.34;4970351;28;20089;-67
2022/05/17 09:45:42;;;;;;;4.43;2.40;;;;;;;30.99;43.83;100582.91;4970428;28;20022;-67
2022/05/17 09:48:10;;;;;;;4.18;2.30;;;;;;;31.16;40.49;100570.94;4971321;28;20516;-67
2022/05/17 09:53:51;;;;;;;4.90;2.50;;;;;;;30.62;40.49;100577.78;4970451;28;20512;-67
2022/05/17 09:56:25;;;;;;;6.53;2.40;;;;;;;31.11;41.77;100575.22;4970404;28;20359;-67
2022/05/17 09:58:51;;;;;;;5.32;2.60;;;;;;;30.95;41.23;100569.69;4970271;28;20073;-67
2022/05/17 10:01:25;;;;;;;5.22;2.70;;;;;;;30.55;41.98;100571.19;4971685;28;20031;-67
2022/05/17 10:04:05;;;;;;;4.90;2.00;;;;;;;31.20;41.19;100563.22;4970549;28;20043;-67
2022/05/17 10:06:34;;;;;;;3.97;2.20;;;;;;;31.80;41.62;100556.44;4970375;28;20394;-67
2022/05/17 10:09:06;;;;;;;4.55;2.15;;;;;;;31.65;39.71;100558.16;4970370;28;20035;-67
2022/05/17 10:11:40;;;;;;;5.15;2.17;;;;;;;31.91;40.19;100558.91;4970455;28;20023;-67
2022/05/17 10:14:10;;;;;;;5.90;2.30;;;;;;;31.75;38.48;100554.22;4970204;28;20037;-67
2022/05/17 10:17:01;;;;;;;5.13;2.33;;;;;;;32.60;39.00;100550.00;4966243;28;20035;-67
2022/05/17 10:19:50;;;;;;;4.75;2.38;;;;;;;32.34;36.34;100555.69;4952666;29;20459;-67
2022/05/17 10:22:35;;;;;;;6.63;2.50;;;;;;;32.78;37.99;100547.84;4969229;28;20022;-68
2022/05/17 10:25:14;;;;;;;4.05;2.13;;;;;;;33.17;38.43;100538.53;4974330;28;20031;-68
2022/05/17 10:27:44;;;;;;;4.97;2.45;;;;;;;32.87;36.10;100546.75;4971356;28;20027;-68
2022/05/17 10:30:15;;;;;;;4.85;2.60;;;;;;;32.82;37.02;100544.53;4971272;28;20038;-68
2022/05/17 10:32:50;;;;;;;3.25;2.00;;;;;;;31.78;38.26;100531.84;4971459;28;20146;-67
2022/05/17 10:35:31;;;;;;;4.10;2.08;;;;;;;31.83;37.63;100529.44;4974126;28;20150;-67
2022/05/17 10:38:12;;;;;;;6.70;2.83;;;;;;;31.67;37.62;100531.34;4971017;28;20022;-67
2022/05/17 10:40:43;;;;;;;5.13;2.15;;;;;;;31.82;39.07;100527.72;4972118;28;20069;-68
2022/05/17 10:43:15;;;;;;;4.00;2.00;;;;;;;31.90;38.32;100524.13;4974185;28;20085;-68
2022/05/17 10:45:41;;;;;;;5.38;2.53;;;;;;;32.23;38.08;100530.44;4973461;28;20035;-68
2022/05/17 10:48:27;;;;;;;6.85;2.80;;;;;;;32.33;36.76;100531.09;4975988;28;20045;-68
2022/05/17 10:51:30;;;;;;;4.03;2.47;;;;;;;32.31;37.01;100524.94;4973692;28;20026;-68
2022/05/17 10:54:07;;;;;;;5.88;2.67;;;;;;;32.74;38.82;100521.66;4975231;28;20051;-68
2022/05/17 10:56:50;;;;;;;4.80;2.33;;;;;;;32.92;38.13;100514.03;4975148;28;20041;-68
2022/05/17 10:59:27;;;;;;;4.43;2.78;;;;;;;33.44;36.61;100519.75;4975227;28;20109;-68
2022/05/17 11:02:40;;;;;;;4.45;2.30;;;;;;;34.00;35.96;100511.00;4974657;28;20035;-68
2022/05/17 11:05:12;;;;;;;5.97;3.10;;;;;;;34.05;36.05;100506.66;4956179;28;20046;-68
2022/05/17 11:08:02;;;;;;;4.90;2.28;;;;;;;34.46;37.03;100518.97;4974856;28;20446;-68
2022/05/17 11:10:36;;;;;;;4.15;2.30;;;;;;;34.15;34.58;100507.19;4974823;28;20657;-68
2022/05/17 11:13:07;;;;;;;3.92;2.47;;;;;;;34.08;34.89;100505.38;4974821;28;20426;-68
2022/05/17 11:15:35;;;;;;;6.65;2.30;;;;;;;34.59;35.43;100490.66;4974351;28;20026;-68
2022/05/17 11:18:17;;;;;;;3.58;1.92;;;;;;;34.78;35.21;100490.03;4971067;28;20027;-68
2022/05/17 11:20:56;;;;;;;4.90;2.35;;;;;;;34.98;35.41;100490.31;4974711;28;20027;-68
2022/05/17 11:23:34;;;;;;;6.65;3.25;;;;;;;35.47;33.35;100491.31;4973855;28;20058;-68
2022/05/17 11:26:21;;;;;;;3.70;1.75;;;;;;;35.46;35.22;100492.34;4974865;28;20034;-68
2022/05/17 11:29:01;;;;;;;3.83;2.10;;;;;;;35.09;32.43;100490.66;4974232;28;20035;-68
2022/05/17 11:31:29;;;;;;;5.82;1.83;;;;;;;35.51;34.73;100484.31;4974482;28;20046;-68
2022/05/17 11:34:33;;;;;;;7.50;2.58;;;;;;;36.03;32.64;100486.69;4974619;28;20030;-68
2022/05/17 11:37:08;;;;;;;3.28;1.60;;;;;;;36.00;29.10;100484.34;4970451;28;20108;-68
2022/05/17 11:39:41;;;;;;;6.15;2.35;;;;;;;36.16;31.06;100475.72;4974555;28;20022;-68
2022/05/17 11:42:07;;;;;;;3.80;1.75;;;;;;;36.05;31.63;100479.06;4973359;28;20096;-68